Time;durP1;ratioP1;P1;durP2;ratioP2;P2;SDS_P1;SDS_P2;PMS_P1;PMS_P2;Temp;Humidity;BMP_temperature;BMP_pressure;BME280_temperature;BME280_humidity;BME280_pressure;Samples;Min_cycle;Max_cycle;Signal;HPM_P1;HPM_P2
2022/03/22 00:00:49;;;;;;;45.90;26.88;;;4.80;99.90;;;;;;5112423;27;20031;-82
2022/03/22 00:03:15;;;;;;;53.65;31.80;;;4.80;99.90;;;;;;5095338;27;20049;-82
2022/03/22 00:05:44;;;;;;;47.15;27.58;;;4.80;99.90;;;;;;5092498;27;20232;-83
2022/03/22 00:08:11;;;;;;;47.03;29.38;;;4.70;99.90;;;;;;5110095;27;20460;-82
2022/03/22 00:10:38;;;;;;;52.88;30.15;;;4.70;99.90;;;;;;5096045;27;20050;-83
2022/03/22 00:13:05;;;;;;;52.30;31.38;;;4.70;99.90;;;;;;5113169;27;20623;-82
2022/03/22 00:15:33;;;;;;;50.35;28.10;;;4.70;99.90;;;;;;5112453;27;20247;-82
2022/03/22 00:17:59;;;;;;;54.03;31.60;;;4.70;99.90;;;;;;5108964;27;20418;-82
2022/03/22 00:20:25;;;;;;;50.25;31.00;;;4.60;99.90;;;;;;5127581;27;20054;-82
2022/03/22 00:22:51;;;;;;;53.22;31.42;;;4.60;99.90;;;;;;5109205;27;20043;-82
2022/03/22 00:25:17;;;;;;;55.08;31.48;;;4.50;99.90;;;;;;5131506;27;20066;-82
2022/03/22 00:27:51;;;;;;;52.30;30.98;;;4.50;99.90;;;;;;5130963;27;20050;-82
2022/03/22 00:30:27;;;;;;;53.92;31.98;;;4.50;99.90;;;;;;5089967;27;20039;-82
2022/03/22 00:32:55;;;;;;;51.05;31.17;;;4.50;99.90;;;;;;5091770;27;20078;-82
2022/03/22 00:35:26;;;;;;;53.55;31.48;;;4.40;99.90;;;;;;5111924;27;20035;-82
2022/03/22 00:37:53;;;;;;;48.70;31.05;;;4.40;99.90;;;;;;5131228;27;20039;-82
2022/03/22 00:40:24;;;;;;;59.47;33.38;;;4.40;99.90;;;;;;5095439;27;20090;-82
2022/03/22 00:42:52;;;;;;;53.67;31.00;;;4.40;99.90;;;;;;5112049;27;20145;-82
2022/03/22 00:45:21;;;;;;;55.08;32.00;;;4.40;99.90;;;;;;5130913;27;20039;-82
2022/03/22 00:47:48;;;;;;;60.00;34.25;;;4.40;99.90;;;;;;5092793;27;20047;-82
2022/03/22 00:50:16;;;;;;;55.80;32.95;;;4.40;99.90;;;;;;5088526;27;20114;-82
2022/03/22 00:52:43;;;;;;;53.40;31.40;;;4.40;99.90;;;;;;5097468;27;20035;-82
2022/03/22 00:55:14;;;;;;;54.90;32.45;;;4.40;99.90;;;;;;5112091;27;20118;-82
2022/03/22 00:57:42;;;;;;;55.22;33.13;;;4.40;99.90;;;;;;5126059;27;20048;-82
2022/03/22 01:00:10;;;;;;;55.15;33.40;;;4.40;99.90;;;;;;5100523;27;20388;-82
2022/03/22 01:02:39;;;;;;;58.55;33.97;;;4.40;99.90;;;;;;5129813;27;20114;-82
2022/03/22 01:05:11;;;;;;;55.70;33.70;;;4.40;99.90;;;;;;5110406;27;20034;-82
2022/03/22 01:07:41;;;;;;;57.75;34.42;;;4.40;99.90;;;;;;5124747;27;20038;-83
2022/03/22 01:10:09;;;;;;;58.25;34.47;;;4.40;99.90;;;;;;5091088;27;20086;-82
2022/03/22 01:12:36;;;;;;;55.67;32.47;;;4.40;99.90;;;;;;5090735;27;20039;-82
2022/03/22 01:15:04;;;;;;;58.35;35.25;;;4.40;99.90;;;;;;5079646;27;20039;-83
2022/03/22 01:17:31;;;;;;;55.00;33.15;;;4.40;99.90;;;;;;5063340;28;20051;-82
2022/03/22 01:20:00;;;;;;;59.75;34.72;;;4.30;99.90;;;;;;5084677;27;20058;-82
2022/03/22 01:22:26;;;;;;;58.92;34.85;;;4.30;99.90;;;;;;5088868;27;20092;-82
2022/03/22 01:24:52;;;;;;;57.70;35.33;;;4.30;99.90;;;;;;5084356;27;20054;-82
2022/03/22 01:27:22;;;;;;;58.72;34.65;;;4.30;99.90;;;;;;5103795;27;20095;-82
2022/03/22 01:29:49;;;;;;;59.30;35.92;;;4.20;99.90;;;;;;5102774;27;20042;-82
2022/03/22 01:32:15;;;;;;;60.55;35.55;;;4.30;99.90;;;;;;5099401;27;20136;-82
2022/03/22 01:34:44;;;;;;;57.47;35.75;;;4.90;99.90;;;;;;5103301;27;20722;-82
2022/03/22 01:37:10;;;;;;;55.42;33.28;;;4.30;99.90;;;;;;5106242;27;20579;-82
2022/03/22 01:39:36;;;;;;;57.92;35.22;;;4.30;99.90;;;;;;5103123;27;20074;-82
2022/03/22 01:42:03;;;;;;;58.25;34.45;;;4.30;99.90;;;;;;5095244;27;20079;-82
2022/03/22 01:44:29;;;;;;;63.60;36.35;;;4.40;99.90;;;;;;5105033;27;20047;-82
2022/03/22 01:47:03;;;;;;;64.00;34.97;;;4.40;99.90;;;;;;5099596;27;20058;-83
2022/03/22 01:49:30;;;;;;;60.30;35.75;;;4.40;99.90;;;;;;5104186;27;20043;-83
2022/03/22 01:51:56;;;;;;;61.92;35.35;;;4.40;99.90;;;;;;5102746;27;20035;-83
2022/03/22 01:54:24;;;;;;;57.50;35.13;;;4.40;99.90;;;;;;5104175;27;20043;-83
2022/03/22 01:56:50;;;;;;;61.85;37.00;;;4.40;99.90;;;;;;5106328;27;20043;-82
2022/03/22 01:59:16;;;;;;;61.60;35.00;;;4.40;99.90;;;;;;5099036;27;20042;-82
2022/03/22 02:07:14;;;;;;;61.22;33.42;;;4.50;99.90;;;;;;5098902;27;20068;-82
2022/03/22 02:09:41;;;;;;;61.05;34.45;;;4.40;99.90;;;;;;5105355;27;20058;-82
2022/03/22 02:12:07;;;;;;;57.45;35.55;;;4.40;99.90;;;;;;5079602;27;20043;-82
2022/03/22 02:14:33;;;;;;;55.90;33.53;;;4.30;99.90;;;;;;5084392;27;20049;-82
2022/03/22 02:17:05;;;;;;;54.00;32.95;;;4.30;99.90;;;;;;5119512;27;20125;-82
2022/03/22 02:19:31;;;;;;;61.78;33.47;;;4.30;99.90;;;;;;5104756;27;20591;-82
2022/03/22 02:22:01;;;;;;;56.53;34.15;;;4.30;99.90;;;;;;5116725;27;20035;-82
2022/03/22 02:24:26;;;;;;;53.95;31.88;;;4.20;99.90;;;;;;5121260;27;20039;-82
2022/03/22 02:26:52;;;;;;;54.60;33.08;;;4.20;99.90;;;;;;5103968;27;20521;-82
2022/03/22 02:29:18;;;;;;;55.97;33.30;;;4.20;99.90;;;;;;5119430;27;20043;-83
2022/03/22 02:31:44;;;;;;;55.22;31.85;;;4.10;99.90;;;;;;5104141;27;20050;-82
2022/03/22 02:34:09;;;;;;;53.58;31.73;;;4.10;99.90;;;;;;5097945;27;20041;-83
2022/03/22 02:36:35;;;;;;;51.72;31.00;;;4.10;99.90;;;;;;5102567;27;20437;-82
2022/03/22 02:39:01;;;;;;;56.42;34.35;;;4.10;99.90;;;;;;5102203;27;20084;-82
2022/03/22 02:41:26;;;;;;;62.70;34.85;;;4.20;99.90;;;;;;5119875;27;20039;-82
2022/03/22 02:43:53;;;;;;;60.00;35.58;;;4.10;99.90;;;;;;5087093;27;20046;-82
2022/03/22 02:46:20;;;;;;;59.15;33.75;;;4.10;99.90;;;;;;5101693;27;20043;-82
2022/03/22 02:48:45;;;;;;;58.20;33.40;;;4.10;99.90;;;;;;5102353;28;20035;-82
2022/03/22 02:51:12;;;;;;;57.97;34.72;;;4.10;99.90;;;;;;5097520;28;20112;-83
2022/03/22 02:53:38;;;;;;;57.40;34.30;;;4.10;99.90;;;;;;5095880;28;20129;-82
2022/03/22 02:56:04;;;;;;;58.88;34.72;;;4.10;99.90;;;;;;5096931;27;20547;-82
2022/03/22 02:58:30;;;;;;;54.17;33.13;;;4.10;99.90;;;;;;5086572;28;20106;-82
2022/03/22 03:00:56;;;;;;;57.30;33.13;;;4.10;99.90;;;;;;5119623;27;20047;-82
2022/03/22 03:03:22;;;;;;;52.28;31.80;;;4.30;99.90;;;;;;5121751;27;20407;-82
2022/03/22 03:05:51;;;;;;;48.72;29.95;;;4.10;99.90;;;;;;5081833;28;20046;-82
2022/03/22 03:08:18;;;;;;;53.03;31.73;;;4.10;99.90;;;;;;5100071;28;20479;-82
2022/03/22 03:10:45;;;;;;;56.38;32.42;;;4.10;99.90;;;;;;5104961;28;20499;-82
2022/03/22 03:13:11;;;;;;;56.53;32.03;;;4.10;99.90;;;;;;5078096;28;20061;-82
2022/03/22 03:15:38;;;;;;;51.92;32.60;;;4.10;99.90;;;;;;5105806;28;20039;-82
2022/03/22 03:18:03;;;;;;;56.13;32.97;;;4.00;99.90;;;;;;5082039;28;20074;-82
2022/03/22 03:20:30;;;;;;;58.75;31.85;;;4.00;99.90;;;;;;5079923;28;20071;-82
2022/03/22 03:22:56;;;;;;;51.53;31.42;;;4.10;99.90;;;;;;5104630;28;20035;-82
2022/03/22 03:25:22;;;;;;;57.10;34.60;;;4.00;99.90;;;;;;5100511;28;20051;-82
2022/03/22 03:27:47;;;;;;;62.28;35.00;;;4.00;99.90;;;;;;5116308;28;20035;-82
2022/03/22 03:30:14;;;;;;;63.65;37.75;;;4.00;99.90;;;;;;5113819;28;20035;-83
2022/03/22 03:32:39;;;;;;;57.58;35.13;;;3.90;99.90;;;;;;5104186;28;20811;-82
2022/03/22 03:35:05;;;;;;;60.95;37.50;;;3.90;99.90;;;;;;5098797;28;20044;-82
2022/03/22 03:37:35;;;;;;;69.18;40.30;;;3.80;99.90;;;;;;5108068;28;20124;-82
2022/03/22 03:40:04;;;;;;;66.68;37.15;;;3.90;99.90;;;;;;5089892;28;20031;-82
2022/03/22 03:42:30;;;;;;;69.78;37.47;;;3.90;99.90;;;;;;5089833;28;20125;-83
2022/03/22 03:47:40;;;;;;;63.78;39.10;;;3.90;99.90;;;;;;5127418;28;20503;-82
2022/03/22 03:50:07;;;;;;;60.50;36.33;;;3.90;99.90;;;;;;5109418;28;20058;-82
2022/03/22 03:52:37;;;;;;;63.70;36.88;;;4.00;99.90;;;;;;5108164;28;20047;-82
2022/03/22 03:55:05;;;;;;;61.63;36.05;;;4.00;99.90;;;;;;5108035;28;20051;-82
2022/03/22 03:57:32;;;;;;;67.63;38.10;;;4.00;99.90;;;;;;5108732;28;20047;-81
2022/03/22 03:59:58;;;;;;;69.13;40.42;;;3.90;99.90;;;;;;5089497;28;20035;-82
2022/03/22 04:02:24;;;;;;;70.78;39.35;;;4.00;99.90;;;;;;5105575;28;20047;-82
2022/03/22 04:04:55;;;;;;;61.13;36.08;;;4.30;99.90;;;;;;5112025;27;20043;-82
2022/03/22 04:07:22;;;;;;;59.53;35.72;;;3.90;99.90;;;;;;5094985;27;20043;-82
2022/03/22 04:09:48;;;;;;;63.33;36.30;;;3.90;99.90;;;;;;5099262;27;20047;-82
2022/03/22 04:12:14;;;;;;;57.72;35.13;;;3.90;99.90;;;;;;5115590;27;20031;-82
2022/03/22 04:14:41;;;;;;;60.22;35.15;;;4.00;99.90;;;;;;5095563;28;20121;-82
2022/03/22 04:17:09;;;;;;;56.03;34.42;;;4.00;99.90;;;;;;5108101;27;20046;-81
2022/03/22 04:19:36;;;;;;;58.45;33.75;;;3.80;99.90;;;;;;5112496;27;20073;-82
2022/03/22 04:22:04;;;;;;;54.88;34.25;;;3.80;99.90;;;;;;5091938;27;20072;-82
2022/03/22 04:24:30;;;;;;;52.35;32.13;;;3.80;99.90;;;;;;5112351;27;20039;-82
2022/03/22 04:32:41;;;;;;;55.47;33.60;;;3.70;99.90;;;;;;5114439;27;20050;-82
2022/03/22 04:32:41;;;;;;;62.72;35.22;;;3.70;99.90;;;;;;5128358;27;20043;-83
2022/03/22 04:35:08;;;;;;;55.33;32.50;;;3.70;99.90;;;;;;5105564;28;20035;-82
2022/03/22 04:37:34;;;;;;;54.10;32.42;;;3.70;99.90;;;;;;5108698;27;20335;-82
2022/03/22 04:40:00;;;;;;;57.03;33.70;;;3.70;99.90;;;;;;5127135;27;20067;-83
2022/03/22 04:42:26;;;;;;;51.38;31.73;;;3.70;99.90;;;;;;5087707;27;20035;-82
2022/03/22 04:44:52;;;;;;;54.40;32.28;;;3.70;99.90;;;;;;5131049;27;20495;-82
2022/03/22 04:47:17;;;;;;;54.33;32.35;;;3.70;99.90;;;;;;5112647;27;20084;-82
2022/03/22 04:49:43;;;;;;;61.75;32.90;;;3.70;99.90;;;;;;5112487;27;20039;-82
2022/03/22 04:57:38;;;;;;;59.30;34.65;;;3.60;99.90;;;;;;5110650;27;20047;-83
2022/03/22 05:00:05;;;;;;;54.33;32.13;;;3.60;99.90;;;;;;5088261;28;20048;-82
2022/03/22 05:02:31;;;;;;;55.85;33.30;;;3.50;99.90;;;;;;5110654;27;20031;-82
2022/03/22 05:04:57;;;;;;;53.75;33.00;;;3.50;99.90;;;;;;5112336;27;20100;-82
2022/03/22 05:07:23;;;;;;;60.45;32.13;;;3.50;99.90;;;;;;5110840;27;20031;-82
2022/03/22 05:09:48;;;;;;;58.53;33.33;;;3.50;99.90;;;;;;5095180;27;20035;-83
2022/03/22 05:12:14;;;;;;;54.72;31.85;;;3.50;99.90;;;;;;5095031;27;20373;-82
2022/03/22 05:14:42;;;;;;;54.28;32.60;;;3.50;99.90;;;;;;5110632;27;20070;-82
2022/03/22 05:17:08;;;;;;;56.00;31.48;;;3.50;99.90;;;;;;5127141;27;20548;-82
2022/03/22 05:19:34;;;;;;;54.88;33.25;;;3.50;99.90;;;;;;5094576;27;20543;-81
2022/03/22 05:22:01;;;;;;;56.53;33.08;;;3.50;99.90;;;;;;5127692;27;20043;-82
2022/03/22 05:24:26;;;;;;;54.55;31.98;;;3.50;99.90;;;;;;5107831;27;20495;-82
2022/03/22 05:26:53;;;;;;;58.35;34.05;;;3.50;99.90;;;;;;5130072;27;20047;-82
2022/03/22 05:29:19;;;;;;;54.15;32.40;;;3.40;99.90;;;;;;5093995;27;20046;-82
2022/03/22 05:31:45;;;;;;;54.83;33.05;;;3.40;99.90;;;;;;5087235;27;20506;-82
2022/03/22 05:34:11;;;;;;;56.53;33.90;;;3.40;99.90;;;;;;5129249;27;20043;-82
2022/03/22 05:36:37;;;;;;;53.45;33.20;;;3.30;99.90;;;;;;5111174;27;20031;-82
2022/03/22 05:39:02;;;;;;;50.58;31.77;;;3.30;99.90;;;;;;5106525;27;20764;-82
2022/03/22 05:41:28;;;;;;;58.80;33.47;;;3.30;99.90;;;;;;5093185;27;20039;-82
2022/03/22 05:43:53;;;;;;;58.90;32.92;;;3.30;99.90;;;;;;5128986;27;20034;-83
2022/03/22 05:46:19;;;;;;;57.33;33.33;;;3.90;99.90;;;;;;5088799;27;20083;-84
2022/03/22 05:48:48;;;;;;;59.47;32.38;;;3.20;99.90;;;;;;5107125;27;20356;-83
2022/03/22 05:51:18;;;;;;;56.47;34.03;;;3.20;99.90;;;;;;5101707;27;20054;-82
2022/03/22 05:53:45;;;;;;;63.28;35.75;;;3.20;99.90;;;;;;5102537;27;20092;-82
2022/03/22 05:56:11;;;;;;;60.05;35.92;;;3.20;99.90;;;;;;5107372;27;20066;-82
2022/03/22 05:58:36;;;;;;;63.03;36.85;;;3.30;99.90;;;;;;5104969;27;20038;-82
2022/03/22 06:01:02;;;;;;;62.55;37.33;;;3.20;99.90;;;;;;5126240;27;20039;-82
2022/03/22 06:03:28;;;;;;;60.47;37.47;;;3.30;99.90;;;;;;5107732;27;20047;-82
2022/03/22 06:05:53;;;;;;;61.90;35.60;;;3.40;99.90;;;;;;5104607;27;20035;-82
2022/03/22 06:08:20;;;;;;;60.40;35.30;;;3.50;99.90;;;;;;5125628;27;20039;-82
2022/03/22 06:10:46;;;;;;;54.95;33.50;;;3.60;99.90;;;;;;5123040;27;20582;-82
2022/03/22 06:13:12;;;;;;;58.15;33.65;;;3.70;99.90;;;;;;5105881;27;20053;-82
2022/03/22 06:15:38;;;;;;;59.47;36.35;;;3.70;99.90;;;;;;5091068;27;20039;-81
2022/03/22 06:18:09;;;;;;;51.42;31.73;;;3.90;99.90;;;;;;5105731;27;20130;-82
2022/03/22 06:20:37;;;;;;;57.13;34.60;;;3.90;99.90;;;;;;5071539;27;20046;-81
2022/03/22 06:23:07;;;;;;;53.63;32.22;;;4.00;99.90;;;;;;5126184;27;20844;-81
2022/03/22 06:25:37;;;;;;;50.40;30.63;;;4.10;99.90;;;;;;5122798;27;20175;-82
2022/03/22 06:28:09;;;;;;;58.22;33.00;;;4.20;99.90;;;;;;5083852;27;20050;-82
2022/03/22 06:30:35;;;;;;;59.08;34.20;;;4.30;99.90;;;;;;5088889;27;20092;-82
2022/03/22 06:33:07;;;;;;;57.90;32.78;;;4.40;99.90;;;;;;5123084;27;20070;-81
2022/03/22 06:35:34;;;;;;;56.67;34.05;;;4.50;99.90;;;;;;5102049;27;20395;-81
2022/03/22 06:38:01;;;;;;;58.92;32.90;;;4.70;99.90;;;;;;5106632;28;20039;-81
2022/03/22 06:40:29;;;;;;;61.55;33.03;;;5.00;99.90;;;;;;5110121;27;20035;-82
2022/03/22 06:42:56;;;;;;;56.97;33.50;;;5.40;99.90;;;;;;5105887;27;20130;-82
2022/03/22 06:45:22;;;;;;;59.95;33.60;;;5.60;99.90;;;;;;5122511;27;20411;-81
2022/03/22 06:47:48;;;;;;;59.33;34.15;;;6.10;99.90;;;;;;5087048;27;20057;-82
2022/03/22 06:50:16;;;;;;;58.67;34.25;;;6.50;99.90;;;;;;5089420;27;20073;-82
2022/03/22 06:52:42;;;;;;;56.63;32.30;;;6.90;99.90;;;;;;5102364;27;20047;-81
2022/03/22 06:55:09;;;;;;;51.63;31.05;;;7.00;99.90;;;;;;5101007;27;20526;-82
2022/03/22 06:57:35;;;;;;;51.95;30.98;;;7.10;99.90;;;;;;5125426;27;20058;-82
2022/03/22 07:00:05;;;;;;;51.22;30.40;;;6.90;99.90;;;;;;5124523;27;20047;-82
2022/03/22 07:02:31;;;;;;;51.58;30.42;;;6.80;99.90;;;;;;5120954;27;20039;-81
2022/03/22 07:04:57;;;;;;;48.40;29.83;;;6.60;99.90;;;;;;5123662;27;20043;-82
2022/03/22 07:07:23;;;;;;;47.70;30.02;;;6.50;99.90;;;;;;5102870;28;20575;-82
2022/03/22 07:09:49;;;;;;;49.25;30.42;;;6.50;99.90;;;;;;5098157;28;20051;-82
2022/03/22 07:12:15;;;;;;;49.25;30.65;;;6.40;99.90;;;;;;5121098;28;20118;-83
2022/03/22 07:14:40;;;;;;;53.88;32.97;;;6.40;99.90;;;;;;5128272;28;20184;-82
2022/03/22 07:17:08;;;;;;;53.22;31.90;;;6.50;99.90;;;;;;5116071;28;20039;-82
2022/03/22 07:19:34;;;;;;;54.20;32.17;;;6.50;99.90;;;;;;5118061;28;20051;-83
2022/03/22 07:22:01;;;;;;;46.40;29.25;;;6.80;99.90;;;;;;5100890;28;20207;-83
2022/03/22 07:24:27;;;;;;;50.25;31.88;;;7.40;99.90;;;;;;5103595;28;20126;-82
2022/03/22 07:26:53;;;;;;;48.95;30.90;;;7.10;99.90;;;;;;5104783;28;20259;-82
2022/03/22 07:29:19;;;;;;;51.47;31.48;;;7.30;99.90;;;;;;5116458;28;20043;-82
2022/03/22 07:31:44;;;;;;;50.83;31.13;;;7.70;99.90;;;;;;5096266;28;20108;-82
2022/03/22 07:34:12;;;;;;;50.83;31.70;;;8.80;99.90;;;;;;5116524;27;20143;-82
2022/03/22 07:36:39;;;;;;;48.22;30.38;;;9.90;99.90;;;;;;5095553;28;20058;-82
2022/03/22 07:39:09;;;;;;;45.78;28.70;;;10.60;99.90;;;;;;5120086;27;20068;-82
2022/03/22 07:41:36;;;;;;;49.45;29.48;;;11.30;99.90;;;;;;5103706;27;20396;-82
2022/03/22 07:44:03;;;;;;;44.45;28.60;;;12.20;99.90;;;;;;5106882;27;20054;-82
2022/03/22 07:46:30;;;;;;;44.75;27.58;;;11.50;99.90;;;;;;5090939;27;20054;-82
2022/03/22 07:52:57;;;;;;;50.17;29.65;;;11.30;99.90;;;;;;5088285;27;20054;-82
2022/03/22 07:54:27;;;;;;;44.35;27.10;;;11.30;99.90;;;;;;5123343;27;20116;-82
2022/03/22 07:56:53;;;;;;;43.72;28.35;;;11.30;99.90;;;;;;5119878;27;20043;-82
2022/03/22 07:59:19;;;;;;;43.38;28.45;;;11.40;99.90;;;;;;5106343;27;20428;-82
2022/03/22 08:01:44;;;;;;;41.05;26.33;;;12.00;99.90;;;;;;5105315;27;20043;-82
2022/03/22 08:04:10;;;;;;;44.20;26.30;;;11.60;99.90;;;;;;5108629;27;20038;-82
2022/03/22 08:06:36;;;;;;;41.78;26.67;;;11.20;99.90;;;;;;5126281;27;20078;-82
2022/03/22 08:09:01;;;;;;;46.63;27.85;;;11.30;99.90;;;;;;5106355;27;20082;-82
2022/03/22 08:11:27;;;;;;;44.95;28.08;;;11.10;99.90;;;;;;5099770;27;20365;-82
2022/03/22 08:13:53;;;;;;;43.03;26.92;;;11.00;99.90;;;;;;5091961;27;20039;-83
2022/03/22 08:16:19;;;;;;;41.10;26.88;;;11.00;99.90;;;;;;5106906;27;20495;-83
2022/03/22 08:18:44;;;;;;;43.58;26.92;;;11.00;99.90;;;;;;5107475;27;20100;-83
2022/03/22 08:21:10;;;;;;;43.05;26.80;;;11.00;99.90;;;;;;5124628;27;20054;-82
2022/03/22 08:23:36;;;;;;;43.13;27.42;;;11.00;99.90;;;;;;5107062;27;20039;-83
2022/03/22 08:26:01;;;;;;;45.28;26.73;;;11.10;99.90;;;;;;5105305;27;20496;-83
2022/03/22 08:28:27;;;;;;;46.90;27.63;;;11.10;99.90;;;;;;5092112;27;20548;-82
2022/03/22 08:30:53;;;;;;;44.60;25.85;;;11.20;99.90;;;;;;5126276;27;20036;-83
2022/03/22 08:33:18;;;;;;;46.33;27.45;;;11.30;99.90;;;;;;5092073;27;20462;-82
2022/03/22 08:35:46;;;;;;;40.78;25.98;;;11.30;99.90;;;;;;5108167;27;20035;-83
2022/03/22 08:38:19;;;;;;;39.20;25.75;;;11.50;99.90;;;;;;5092683;27;20061;-82
2022/03/22 08:40:44;;;;;;;41.40;25.10;;;11.50;99.90;;;;;;5108042;27;20794;-82
2022/03/22 08:43:10;;;;;;;41.20;25.15;;;11.70;99.90;;;;;;5127714;27;20047;-82
2022/03/22 08:45:36;;;;;;;44.97;27.88;;;11.70;99.90;;;;;;5107294;27;20470;-82
2022/03/22 08:48:09;;;;;;;43.88;26.05;;;11.90;99.90;;;;;;5104458;27;20469;-82
2022/03/22 08:50:36;;;;;;;42.40;25.67;;;12.10;99.90;;;;;;5089652;28;20098;-81
2022/03/22 08:53:02;;;;;;;38.95;24.77;;;12.20;99.90;;;;;;5079068;27;20035;-81
2022/03/22 08:55:29;;;;;;;44.70;27.33;;;12.30;99.90;;;;;;5093640;27;20088;-83
2022/03/22 08:57:55;;;;;;;42.15;27.35;;;12.40;99.90;;;;;;5100277;27;20039;-82
2022/03/22 09:00:22;;;;;;;40.95;27.00;;;12.60;99.90;;;;;;5092837;27;20047;-82
2022/03/22 09:02:50;;;;;;;49.53;28.85;;;12.60;99.90;;;;;;5084692;27;20255;-83
2022/03/22 09:08:06;;;;;;;42.83;27.17;;;13.00;99.90;;;;;;5113733;27;20047;-82
2022/03/22 09:10:32;;;;;;;43.70;27.60;;;13.30;99.90;;;;;;5093850;27;20036;-82
2022/03/22 09:12:58;;;;;;;44.00;27.13;;;13.40;99.90;;;;;;5100532;27;20040;-82
2022/03/22 09:15:26;;;;;;;44.38;27.17;;;13.60;99.90;;;;;;5118736;27;20039;-83
2022/03/22 09:17:53;;;;;;;40.65;27.10;;;13.80;99.90;;;;;;5119153;27;20055;-83
2022/03/22 09:20:19;;;;;;;44.40;26.20;;;13.90;99.90;;;;;;5091511;27;20062;-82
2022/03/22 09:22:48;;;;;;;41.53;25.42;;;14.10;99.90;;;;;;5110352;27;20058;-83
2022/03/22 09:25:14;;;;;;;41.97;23.98;;;14.20;99.90;;;;;;5096299;27;20449;-83
2022/03/22 09:27:43;;;;;;;40.90;23.90;;;14.30;99.90;;;;;;5092989;27;20472;-83
2022/03/22 09:30:11;;;;;;;39.42;25.50;;;14.50;99.90;;;;;;5091753;27;20036;-83
2022/03/22 09:32:38;;;;;;;36.88;23.83;;;14.60;99.90;;;;;;5093324;27;20054;-83
2022/03/22 09:35:07;;;;;;;38.17;22.92;;;14.70;99.90;;;;;;5115438;27;20046;-82
2022/03/22 09:37:34;;;;;;;39.60;23.58;;;14.80;99.90;;;;;;5096146;27;20728;-82
2022/03/22 09:39:59;;;;;;;38.97;22.42;;;14.90;99.90;;;;;;5103687;27;20530;-83
2022/03/22 09:42:27;;;;;;;35.38;23.05;;;15.00;99.90;;;;;;5121713;27;20172;-83
2022/03/22 09:44:53;;;;;;;39.55;24.17;;;15.30;99.90;;;;;;5084970;27;20043;-82
2022/03/22 09:47:19;;;;;;;39.13;24.73;;;15.70;99.90;;;;;;5121870;27;20042;-83
2022/03/22 09:49:45;;;;;;;37.55;24.33;;;15.60;99.90;;;;;;5083448;27;20050;-82
2022/03/22 09:52:12;;;;;;;38.95;24.55;;;15.60;99.90;;;;;;5114834;27;20043;-82
2022/03/22 09:54:39;;;;;;;40.40;24.20;;;15.80;99.90;;;;;;5117649;27;20039;-83
2022/03/22 09:57:05;;;;;;;38.63;23.63;;;15.80;99.90;;;;;;5088119;27;20054;-82
2022/03/22 09:59:34;;;;;;;40.55;24.10;;;16.00;99.90;;;;;;5104037;27;20188;-83
2022/03/22 10:02:00;;;;;;;38.10;23.98;;;16.00;99.90;;;;;;5087831;27;20051;-83
2022/03/22 10:04:36;;;;;;;37.53;23.20;;;16.30;99.90;;;;;;5122860;27;20039;-83
2022/03/22 10:07:05;;;;;;;37.40;23.98;;;16.20;99.90;;;;;;5087494;27;20074;-83
2022/03/22 10:09:39;;;;;;;39.55;23.98;;;16.30;99.90;;;;;;5103140;27;20043;-83
2022/03/22 10:12:13;;;;;;;38.58;22.60;;;16.30;99.90;;;;;;5086457;27;20495;-84
2022/03/22 10:14:41;;;;;;;33.65;21.33;;;16.30;99.90;;;;;;5103482;27;20438;-83
2022/03/22 10:17:09;;;;;;;36.15;22.02;;;16.30;99.90;;;;;;5119973;27;20031;-83
2022/03/22 10:19:41;;;;;;;35.45;22.02;;;16.30;99.90;;;;;;5119064;27;20078;-83
2022/03/22 10:22:10;;;;;;;35.33;22.70;;;16.30;99.90;;;;;;5119131;27;20051;-83
2022/03/22 10:24:44;;;;;;;38.55;23.83;;;16.50;99.90;;;;;;5095401;27;20047;-84
2022/03/22 10:27:23;;;;;;;37.65;24.10;;;16.40;99.90;;;;;;5091414;27;20055;-82
2022/03/22 10:29:49;;;;;;;33.83;23.02;;;16.40;99.90;;;;;;5097841;27;20085;-83
2022/03/22 10:32:16;;;;;;;38.03;24.02;;;16.40;99.90;;;;;;5090007;27;20070;-83
2022/03/22 10:34:42;;;;;;;36.35;22.80;;;16.30;99.90;;;;;;5087993;27;20031;-82
2022/03/22 10:37:08;;;;;;;35.13;23.13;;;16.40;99.90;;;;;;5106685;27;20096;-81
2022/03/22 10:39:39;;;;;;;36.80;23.45;;;16.30;99.90;;;;;;5087864;27;20041;-83
2022/03/22 10:42:06;;;;;;;35.27;22.63;;;16.40;99.90;;;;;;5110945;27;20047;-83
2022/03/22 10:44:37;;;;;;;33.45;22.92;;;16.50;99.90;;;;;;5097584;27;20562;-82
2022/03/22 10:47:03;;;;;;;38.28;22.90;;;16.50;99.90;;;;;;5093108;27;20051;-83
2022/03/22 10:49:29;;;;;;;36.60;23.50;;;16.50;99.90;;;;;;5075081;27;20043;-83
2022/03/22 10:51:58;;;;;;;38.92;23.15;;;16.60;99.90;;;;;;5108191;27;20057;-84
2022/03/22 10:54:25;;;;;;;41.22;23.90;;;16.60;99.90;;;;;;5076994;27;20126;-83
2022/03/22 10:56:53;;;;;;;37.10;23.23;;;16.60;99.90;;;;;;5107983;27;20608;-82
2022/03/22 10:59:25;;;;;;;33.63;22.45;;;16.70;99.90;;;;;;5111661;27;20089;-83
2022/03/22 11:01:52;;;;;;;33.67;22.45;;;16.80;99.90;;;;;;5111921;27;20158;-84
2022/03/22 11:04:21;;;;;;;37.15;23.65;;;16.80;99.90;;;;;;5082063;27;20051;-82
2022/03/22 11:06:47;;;;;;;40.10;23.00;;;16.90;99.90;;;;;;5110539;27;20096;-83
2022/03/22 11:09:24;;;;;;;36.00;22.27;;;16.90;99.90;;;;;;5118102;27;20137;-84
2022/03/22 11:11:50;;;;;;;36.53;22.88;;;17.00;99.90;;;;;;5087628;28;20051;-83
2022/03/22 11:14:17;;;;;;;34.35;22.77;;;17.00;99.90;;;;;;5109271;27;20039;-83
2022/03/22 11:16:48;;;;;;;35.35;23.13;;;17.10;99.90;;;;;;5130698;27;20062;-84
2022/03/22 11:19:16;;;;;;;35.65;23.10;;;17.20;99.90;;;;;;5128716;27;20075;-84
2022/03/22 11:21:41;;;;;;;34.47;22.50;;;17.40;99.90;;;;;;5129365;27;20093;-83
2022/03/22 11:24:12;;;;;;;35.70;23.67;;;17.40;99.90;;;;;;5124433;27;20060;-84
2022/03/22 11:26:46;;;;;;;39.55;23.20;;;17.50;99.80;;;;;;5129204;27;20367;-83
2022/03/22 11:29:20;;;;;;;42.22;22.02;;;17.50;99.90;;;;;;5112181;27;20043;-83
2022/03/22 11:34:31;;;;;;;35.67;21.38;;;17.80;98.50;;;;;;5108856;27;20054;-83
2022/03/22 11:37:01;;;;;;;35.15;22.23;;;18.00;99.30;;;;;;5127051;27;20488;-82
2022/03/22 11:42:24;;;;;;;38.25;22.00;;;18.10;97.50;;;;;;5107728;27;20078;-83
2022/03/22 11:45:08;;;;;;;33.45;21.65;;;18.20;96.90;;;;;;5107652;27;20046;-83
2022/03/22 11:47:42;;;;;;;34.95;21.42;;;18.30;96.70;;;;;;5088039;27;20043;-82
2022/03/22 11:50:09;;;;;;;35.97;21.90;;;18.40;96.70;;;;;;5102938;27;20155;-82
2022/03/22 11:52:39;;;;;;;33.28;21.85;;;18.40;95.90;;;;;;5099730;27;20035;-82
2022/03/22 11:55:25;;;;;;;32.40;21.30;;;18.50;95.70;;;;;;5107047;27;20043;-83
2022/03/22 11:57:56;;;;;;;37.15;21.10;;;18.60;95.90;;;;;;5086786;27;20050;-82
2022/03/22 12:00:45;;;;;;;35.13;21.23;;;18.70;95.70;;;;;;5092482;27;20133;-82
2022/03/22 12:03:15;;;;;;;35.30;21.40;;;18.90;96.30;;;;;;5090815;27;20074;-82
2022/03/22 12:05:42;;;;;;;34.22;21.35;;;19.00;95.10;;;;;;5124839;27;20491;-83
2022/03/22 12:08:10;;;;;;;34.10;20.33;;;19.10;94.40;;;;;;5111976;27;20047;-83
2022/03/22 12:10:36;;;;;;;31.85;21.23;;;19.20;94.00;;;;;;5107344;27;20142;-84
2022/03/22 12:13:02;;;;;;;35.30;21.50;;;19.30;94.50;;;;;;5128066;27;20062;-83
2022/03/22 12:15:28;;;;;;;38.92;20.60;;;19.40;95.10;;;;;;5126761;27;20046;-83
2022/03/22 12:17:54;;;;;;;36.92;21.27;;;19.40;93.50;;;;;;5092533;27;20043;-82
2022/03/22 12:20:22;;;;;;;34.63;20.20;;;19.50;92.30;;;;;;5106901;27;20036;-82
2022/03/22 12:22:50;;;;;;;34.47;19.92;;;19.50;93.40;;;;;;5109811;27;20043;-82
2022/03/22 12:25:24;;;;;;;31.20;20.30;;;19.50;91.90;;;;;;5125602;27;20077;-82
2022/03/22 12:27:56;;;;;;;34.63;21.25;;;19.50;92.00;;;;;;5102007;27;20775;-82
2022/03/22 12:30:30;;;;;;;33.15;19.48;;;19.50;90.50;;;;;;5106642;27;20134;-82
2022/03/22 12:32:57;;;;;;;36.67;20.33;;;19.50;91.20;;;;;;5105549;27;20368;-83
2022/03/22 12:35:23;;;;;;;33.55;20.85;;;19.50;88.20;;;;;;5086529;27;20062;-83
2022/03/22 12:37:51;;;;;;;36.03;19.38;;;19.50;87.00;;;;;;5104177;27;20043;-83
2022/03/22 12:40:18;;;;;;;39.08;19.20;;;19.50;89.40;;;;;;5105075;27;20684;-83
2022/03/22 12:42:45;;;;;;;36.13;19.58;;;19.60;88.90;;;;;;5089071;27;20061;-81
2022/03/22 12:45:12;;;;;;;33.70;19.15;;;19.60;90.00;;;;;;5122759;27;20118;-82
2022/03/22 12:47:38;;;;;;;32.08;18.67;;;19.80;87.80;;;;;;5105843;27;20122;-84
2022/03/22 12:50:07;;;;;;;31.48;19.10;;;19.70;86.90;;;;;;5105020;27;20039;-82
2022/03/22 12:52:32;;;;;;;31.50;18.38;;;19.80;86.10;;;;;;5102941;27;20070;-82
2022/03/22 12:54:58;;;;;;;30.80;19.17;;;19.90;84.70;;;;;;5123411;27;20748;-82
2022/03/22 12:57:24;;;;;;;30.05;17.85;;;19.90;83.70;;;;;;5122508;27;20096;-82
2022/03/22 12:59:50;;;;;;;32.42;18.33;;;19.80;84.70;;;;;;5083459;27;20071;-82
2022/03/22 13:02:17;;;;;;;31.55;18.63;;;19.80;84.40;;;;;;5104474;27;20039;-83